WLF2018 ROAH-VHHH
Flight info
| Callsign | WLF2018 |
|---|---|
| Flight time | 2h 14m |
| Altitude | 40000 |
| Route | GANJU Y576 LILRA Y573 SEDKU R595 APU A1 ELATO V522 ABBEY |
| Aircraft | A359/H-SDE2E3GHIJ3J4J5LM1ORWXY/LB1D1 |
Departure
| Time | 2026-04-21 21:06 |
|---|---|
| Airport | Naha International Airport (ROAH) |
Arrival
| Time | 2026-04-21 23:20 |
|---|---|
| Airport | Hong Kong International Airport (VHHH) |
| Time | Latitude | Longitude | Altitude | Speed | Heading |
|---|---|---|---|---|---|
| 2026-04-21 20:43 | 26.21006 | 127.64964 | 28 ft | 0 kts | 88° |
| 2026-04-21 20:56 | 26.21006 | 127.64962 | 28 ft | 3 kts | 87° |
| 2026-04-21 20:57 | 26.21006 | 127.64937 | 27 ft | 4 kts | 99° |
| 2026-04-21 20:57 | 26.21013 | 127.64909 | 26 ft | 4 kts | 122° |
| 2026-04-21 20:57 | 26.21031 | 127.64888 | 26 ft | 4 kts | 154° |
| 2026-04-21 20:57 | 26.21054 | 127.64882 | 26 ft | 4 kts | 177° |
| 2026-04-21 20:58 | 26.21076 | 127.64882 | 25 ft | 0 kts | 178° |
| 2026-04-21 20:58 | 26.21076 | 127.64881 | 27 ft | 0 kts | 178° |
| 2026-04-21 21:00 | 26.21075 | 127.64882 | 27 ft | 2 kts | 178° |
| 2026-04-21 21:00 | 26.21025 | 127.64885 | 26 ft | 10 kts | 177° |
| 2026-04-21 21:00 | 26.20942 | 127.64870 | 30 ft | 13 kts | 216° |
| 2026-04-21 21:01 | 26.20897 | 127.64767 | 25 ft | 18 kts | 231° |
| 2026-04-21 21:01 | 26.20765 | 127.64738 | 26 ft | 22 kts | 176° |
| 2026-04-21 21:01 | 26.20599 | 127.64748 | 26 ft | 25 kts | 178° |
| 2026-04-21 21:01 | 26.20414 | 127.64756 | 27 ft | 28 kts | 178° |
| 2026-04-21 21:02 | 26.20202 | 127.64766 | 26 ft | 33 kts | 177° |
| 2026-04-21 21:02 | 26.19962 | 127.64776 | 26 ft | 36 kts | 178° |
| 2026-04-21 21:02 | 26.19711 | 127.64788 | 26 ft | 36 kts | 177° |
| 2026-04-21 21:02 | 26.19455 | 127.64800 | 29 ft | 37 kts | 177° |
| 2026-04-21 21:03 | 26.19195 | 127.64812 | 26 ft | 38 kts | 177° |
| 2026-04-21 21:03 | 26.18931 | 127.64825 | 26 ft | 38 kts | 178° |
| 2026-04-21 21:03 | 26.18666 | 127.64837 | 27 ft | 39 kts | 177° |
| 2026-04-21 21:03 | 26.18406 | 127.64851 | 26 ft | 37 kts | 177° |
| 2026-04-21 21:04 | 26.18286 | 127.64848 | 27 ft | 10 kts | 199° |
| 2026-04-21 21:04 | 26.18245 | 127.64779 | 23 ft | 12 kts | 262° |
| 2026-04-21 21:04 | 26.18258 | 127.64675 | 23 ft | 15 kts | 309° |
| 2026-04-21 21:04 | 26.18340 | 127.64647 | 24 ft | 0 kts | 356° |
| 2026-04-21 21:05 | 26.18418 | 127.64642 | 26 ft | 45 kts | 356° |
| 2026-04-21 21:05 | 26.19298 | 127.64601 | 27 ft | 142 kts | 358° |
| 2026-04-21 21:05 | 26.20449 | 127.64537 | 326 ft | 174 kts | 356° |
| 2026-04-21 21:06 | 26.21251 | 127.64436 | 916 ft | 166 kts | 352° |
| 2026-04-21 21:06 | 26.22278 | 127.64161 | 1953 ft | 139 kts | 346° |
| 2026-04-21 21:06 | 26.23260 | 127.63943 | 2284 ft | 149 kts | 354° |
| 2026-04-21 21:06 | 26.24313 | 127.63861 | 2552 ft | 160 kts | 0° |
| 2026-04-21 21:07 | 26.25436 | 127.63668 | 2870 ft | 170 kts | 343° |
| 2026-04-21 21:07 | 26.26550 | 127.63153 | 3290 ft | 177 kts | 336° |
| 2026-04-21 21:07 | 26.27702 | 127.62550 | 3676 ft | 188 kts | 334° |
| 2026-04-21 21:07 | 26.28892 | 127.61851 | 4072 ft | 200 kts | 330° |
| 2026-04-21 21:08 | 26.30170 | 127.61066 | 4346 ft | 220 kts | 331° |
| 2026-04-21 21:08 | 26.31579 | 127.60216 | 4653 ft | 240 kts | 332° |
| 2026-04-21 21:08 | 26.33112 | 127.59292 | 4936 ft | 261 kts | 331° |
| 2026-04-21 21:08 | 26.34747 | 127.58293 | 5300 ft | 274 kts | 330° |
| 2026-04-21 21:09 | 26.36427 | 127.57259 | 5952 ft | 276 kts | 330° |
| 2026-04-21 21:09 | 26.38088 | 127.56245 | 6781 ft | 270 kts | 331° |
| 2026-04-21 21:09 | 26.39727 | 127.55237 | 7510 ft | 269 kts | 329° |
| 2026-04-21 21:09 | 26.41217 | 127.53962 | 8033 ft | 273 kts | 311° |
| 2026-04-21 21:10 | 26.42135 | 127.52121 | 8604 ft | 276 kts | 286° |
| 2026-04-21 21:10 | 26.42231 | 127.49992 | 9218 ft | 279 kts | 261° |
| 2026-04-21 21:10 | 26.41471 | 127.47995 | 9757 ft | 285 kts | 236° |
| 2026-04-21 21:10 | 26.39966 | 127.46554 | 10074 ft | 290 kts | 210° |
| 2026-04-21 21:11 | 26.38182 | 127.45424 | 10272 ft | 301 kts | 220° |
| 2026-04-21 21:11 | 26.36647 | 127.43783 | 10512 ft | 312 kts | 230° |
| 2026-04-21 21:11 | 26.35183 | 127.41932 | 10734 ft | 325 kts | 231° |
| 2026-04-21 21:11 | 26.33667 | 127.39999 | 10942 ft | 337 kts | 230° |
| 2026-04-21 21:12 | 26.31987 | 127.38119 | 11237 ft | 346 kts | 226° |
| 2026-04-21 21:12 | 26.30235 | 127.36251 | 11657 ft | 350 kts | 226° |
| 2026-04-21 21:12 | 26.28479 | 127.34368 | 12129 ft | 352 kts | 226° |
| 2026-04-21 21:12 | 26.26716 | 127.32463 | 12609 ft | 354 kts | 226° |
| 2026-04-21 21:13 | 26.24951 | 127.30547 | 13073 ft | 355 kts | 226° |
| 2026-04-21 21:13 | 26.23174 | 127.28611 | 13458 ft | 360 kts | 226° |
| 2026-04-21 21:13 | 26.21377 | 127.26651 | 13869 ft | 362 kts | 226° |
| 2026-04-21 21:13 | 26.19575 | 127.24685 | 14258 ft | 364 kts | 226° |
| 2026-04-21 21:14 | 26.17760 | 127.22707 | 14684 ft | 366 kts | 226° |
| 2026-04-21 21:14 | 26.15944 | 127.20728 | 15118 ft | 366 kts | 226° |
| 2026-04-21 21:14 | 26.14120 | 127.18737 | 15495 ft | 368 kts | 227° |
| 2026-04-21 21:14 | 26.12405 | 127.16621 | 15859 ft | 368 kts | 235° |
| 2026-04-21 21:15 | 26.10967 | 127.14262 | 16241 ft | 369 kts | 239° |
| 2026-04-21 21:15 | 26.09597 | 127.11835 | 16623 ft | 372 kts | 240° |
| 2026-04-21 21:15 | 26.08224 | 127.09384 | 16991 ft | 374 kts | 240° |
| 2026-04-21 21:15 | 26.06840 | 127.06923 | 17362 ft | 376 kts | 240° |
| 2026-04-21 21:16 | 26.05445 | 127.04451 | 17703 ft | 379 kts | 240° |
| 2026-04-21 21:16 | 26.04036 | 127.01958 | 18054 ft | 382 kts | 240° |
| 2026-04-21 21:16 | 26.02620 | 126.99457 | 18398 ft | 383 kts | 240° |
| 2026-04-21 21:16 | 26.01194 | 126.96940 | 18763 ft | 384 kts | 240° |
| 2026-04-21 21:17 | 25.99772 | 126.94432 | 19132 ft | 384 kts | 240° |
| 2026-04-21 21:17 | 25.98344 | 126.91915 | 19472 ft | 385 kts | 240° |
| 2026-04-21 21:17 | 25.96912 | 126.89395 | 19812 ft | 386 kts | 240° |
| 2026-04-21 21:17 | 25.95479 | 126.86870 | 20144 ft | 387 kts | 240° |
| 2026-04-21 21:18 | 25.94059 | 126.84373 | 20472 ft | 388 kts | 240° |
| 2026-04-21 21:18 | 25.92617 | 126.81837 | 20798 ft | 389 kts | 240° |
| 2026-04-21 21:18 | 25.91168 | 126.79290 | 21132 ft | 390 kts | 240° |
| 2026-04-21 21:18 | 25.89717 | 126.76741 | 21467 ft | 391 kts | 240° |
| 2026-04-21 21:19 | 25.88258 | 126.74180 | 21792 ft | 393 kts | 240° |
| 2026-04-21 21:19 | 25.86796 | 126.71615 | 22096 ft | 394 kts | 240° |
| 2026-04-21 21:19 | 25.85374 | 126.69013 | 22402 ft | 395 kts | 242° |
| 2026-04-21 21:19 | 25.84011 | 126.66356 | 22708 ft | 396 kts | 243° |
| 2026-04-21 21:20 | 25.82674 | 126.63685 | 22998 ft | 397 kts | 243° |
| 2026-04-21 21:20 | 25.81333 | 126.60995 | 23300 ft | 399 kts | 243° |
| 2026-04-21 21:20 | 25.79981 | 126.58304 | 23586 ft | 400 kts | 243° |
| 2026-04-21 21:20 | 25.78617 | 126.55612 | 23831 ft | 401 kts | 243° |
| 2026-04-21 21:21 | 25.77240 | 126.52913 | 24069 ft | 403 kts | 243° |
| 2026-04-21 21:21 | 25.75851 | 126.50207 | 24312 ft | 404 kts | 243° |
| 2026-04-21 21:21 | 25.74454 | 126.47495 | 24522 ft | 406 kts | 243° |
| 2026-04-21 21:21 | 25.73049 | 126.44771 | 24762 ft | 407 kts | 243° |
| 2026-04-21 21:22 | 25.71640 | 126.42038 | 25012 ft | 409 kts | 243° |
| 2026-04-21 21:22 | 25.70228 | 126.39301 | 25275 ft | 410 kts | 243° |
| 2026-04-21 21:22 | 25.68813 | 126.36556 | 25510 ft | 411 kts | 243° |
| 2026-04-21 21:22 | 25.67387 | 126.33795 | 25757 ft | 413 kts | 243° |
| 2026-04-21 21:23 | 25.65956 | 126.31029 | 26031 ft | 414 kts | 242° |
| 2026-04-21 21:23 | 25.64519 | 126.28257 | 26331 ft | 415 kts | 243° |
| 2026-04-21 21:23 | 25.63083 | 126.25472 | 26613 ft | 418 kts | 243° |
| 2026-04-21 21:23 | 25.61637 | 126.22684 | 26887 ft | 419 kts | 243° |
| 2026-04-21 21:24 | 25.60180 | 126.19875 | 27097 ft | 422 kts | 243° |
| 2026-04-21 21:24 | 25.58718 | 126.17051 | 27333 ft | 423 kts | 243° |
| 2026-04-21 21:24 | 25.57249 | 126.14218 | 27645 ft | 424 kts | 243° |
| 2026-04-21 21:24 | 25.55780 | 126.11382 | 27945 ft | 426 kts | 243° |
| 2026-04-21 21:25 | 25.54305 | 126.08515 | 28341 ft | 429 kts | 243° |
| 2026-04-21 21:25 | 25.52849 | 126.05682 | 28776 ft | 429 kts | 243° |
| 2026-04-21 21:25 | 25.51340 | 126.02780 | 29093 ft | 432 kts | 243° |
| 2026-04-21 21:25 | 25.49856 | 125.99929 | 29413 ft | 433 kts | 243° |
| 2026-04-21 21:26 | 25.48344 | 125.97039 | 29710 ft | 435 kts | 243° |
| 2026-04-21 21:26 | 25.46822 | 125.94133 | 29994 ft | 438 kts | 243° |
| 2026-04-21 21:26 | 25.45291 | 125.91206 | 30264 ft | 439 kts | 243° |
| 2026-04-21 21:26 | 25.43760 | 125.88277 | 30523 ft | 441 kts | 243° |
| 2026-04-21 21:27 | 25.42220 | 125.85339 | 30781 ft | 443 kts | 243° |
| 2026-04-21 21:27 | 25.40673 | 125.82387 | 31048 ft | 445 kts | 243° |
| 2026-04-21 21:27 | 25.39118 | 125.79411 | 31328 ft | 446 kts | 243° |
| 2026-04-21 21:27 | 25.37565 | 125.76439 | 31596 ft | 448 kts | 243° |
| 2026-04-21 21:28 | 25.36004 | 125.73451 | 31847 ft | 450 kts | 243° |
| 2026-04-21 21:28 | 25.34427 | 125.70443 | 32060 ft | 453 kts | 243° |
| 2026-04-21 21:28 | 25.31225 | 125.64422 | 32581 ft | 456 kts | 242° |
| 2026-04-21 21:29 | 25.29608 | 125.61395 | 32836 ft | 458 kts | 242° |
| 2026-04-21 21:29 | 25.27989 | 125.58366 | 33084 ft | 459 kts | 242° |
| 2026-04-21 21:29 | 25.26359 | 125.55318 | 33320 ft | 461 kts | 242° |
| 2026-04-21 21:29 | 25.24726 | 125.52263 | 33572 ft | 461 kts | 243° |
| 2026-04-21 21:30 | 25.23097 | 125.49214 | 33852 ft | 462 kts | 243° |
| 2026-04-21 21:30 | 25.21460 | 125.46152 | 34080 ft | 464 kts | 243° |
| 2026-04-21 21:30 | 25.19820 | 125.43087 | 34352 ft | 463 kts | 243° |
| 2026-04-21 21:30 | 25.18184 | 125.40032 | 34682 ft | 462 kts | 243° |
| 2026-04-21 21:31 | 25.16551 | 125.36985 | 35022 ft | 460 kts | 243° |
| 2026-04-21 21:31 | 25.14923 | 125.33952 | 35354 ft | 459 kts | 243° |
| 2026-04-21 21:31 | 25.13300 | 125.30928 | 35667 ft | 458 kts | 242° |
| 2026-04-21 21:31 | 25.11681 | 125.27912 | 35988 ft | 457 kts | 242° |
| 2026-04-21 21:32 | 25.09978 | 125.24944 | 36288 ft | 458 kts | 238° |
| 2026-04-21 21:32 | 25.08124 | 125.22091 | 36532 ft | 459 kts | 237° |
| 2026-04-21 21:32 | 25.06235 | 125.19259 | 36803 ft | 459 kts | 237° |
| 2026-04-21 21:32 | 25.04325 | 125.16441 | 37111 ft | 458 kts | 237° |
| 2026-04-21 21:33 | 25.02414 | 125.13639 | 37454 ft | 456 kts | 237° |
| 2026-04-21 21:33 | 25.00504 | 125.10845 | 37793 ft | 455 kts | 237° |
| 2026-04-21 21:33 | 24.98598 | 125.08076 | 38108 ft | 455 kts | 236° |
| 2026-04-21 21:33 | 24.96620 | 125.05350 | 38430 ft | 454 kts | 234° |
| 2026-04-21 21:34 | 24.94612 | 125.02669 | 38731 ft | 453 kts | 234° |
| 2026-04-21 21:34 | 24.92594 | 125.00002 | 38933 ft | 453 kts | 234° |
| 2026-04-21 21:34 | 24.90578 | 124.97332 | 39129 ft | 453 kts | 234° |
| 2026-04-21 21:34 | 24.88673 | 124.94777 | 39274 ft | 453 kts | 236° |
| 2026-04-21 21:35 | 24.86896 | 124.91926 | 39467 ft | 450 kts | 243° |
| 2026-04-21 21:35 | 24.85497 | 124.88862 | 39668 ft | 446 kts | 250° |
| 2026-04-21 21:35 | 24.84529 | 124.85635 | 39859 ft | 444 kts | 258° |
| 2026-04-21 21:36 | 24.83971 | 124.78913 | 39956 ft | 441 kts | 274° |
| 2026-04-21 21:36 | 24.84653 | 124.72213 | 39955 ft | 441 kts | 277° |
| 2026-04-21 21:37 | 24.85512 | 124.65534 | 39944 ft | 441 kts | 278° |
| 2026-04-21 21:37 | 24.86361 | 124.58850 | 39945 ft | 440 kts | 277° |
| 2026-04-21 21:38 | 24.87176 | 124.52165 | 39947 ft | 440 kts | 277° |
| 2026-04-21 21:38 | 24.87974 | 124.45480 | 39949 ft | 440 kts | 277° |
| 2026-04-21 21:39 | 24.88767 | 124.38795 | 39950 ft | 440 kts | 277° |
| 2026-04-21 21:39 | 24.89559 | 124.32108 | 39949 ft | 440 kts | 277° |
| 2026-04-21 21:40 | 24.90348 | 124.25426 | 39947 ft | 440 kts | 277° |
| 2026-04-21 21:40 | 24.91129 | 124.18787 | 39949 ft | 440 kts | 277° |
| 2026-04-21 21:41 | 24.91912 | 124.12110 | 39950 ft | 439 kts | 277° |
| 2026-04-21 21:41 | 24.92691 | 124.05430 | 39949 ft | 439 kts | 277° |
| 2026-04-21 21:42 | 24.93468 | 123.98753 | 39946 ft | 439 kts | 277° |
| 2026-04-21 21:42 | 24.94196 | 123.92070 | 39947 ft | 439 kts | 277° |
| 2026-04-21 21:43 | 24.94888 | 123.85386 | 39946 ft | 439 kts | 277° |
| 2026-04-21 21:43 | 24.95583 | 123.78702 | 39936 ft | 439 kts | 277° |
| 2026-04-21 21:44 | 24.96284 | 123.72017 | 39946 ft | 439 kts | 277° |
| 2026-04-21 21:44 | 24.96984 | 123.65328 | 39944 ft | 439 kts | 277° |
| 2026-04-21 21:45 | 24.97680 | 123.58654 | 39945 ft | 438 kts | 277° |
| 2026-04-21 21:45 | 24.98373 | 123.51983 | 39949 ft | 438 kts | 277° |
| 2026-04-21 21:46 | 24.99062 | 123.45311 | 39940 ft | 438 kts | 277° |
| 2026-04-21 21:46 | 24.99748 | 123.38644 | 39942 ft | 438 kts | 277° |
| 2026-04-21 21:47 | 25.00431 | 123.31970 | 39939 ft | 438 kts | 277° |
| 2026-04-21 21:47 | 25.01111 | 123.25300 | 39939 ft | 438 kts | 277° |
| 2026-04-21 21:48 | 25.01788 | 123.18625 | 39940 ft | 438 kts | 277° |
| 2026-04-21 21:48 | 25.02466 | 123.11957 | 39938 ft | 437 kts | 276° |
| 2026-04-21 21:49 | 25.03131 | 123.05299 | 39936 ft | 437 kts | 276° |
| 2026-04-21 21:49 | 25.03793 | 122.98648 | 39931 ft | 436 kts | 277° |
| 2026-04-21 21:50 | 25.04459 | 122.91997 | 39929 ft | 436 kts | 276° |
| 2026-04-21 21:50 | 25.05118 | 122.85346 | 39928 ft | 436 kts | 276° |
| 2026-04-21 21:51 | 25.05773 | 122.78709 | 39931 ft | 435 kts | 276° |
| 2026-04-21 21:51 | 25.06422 | 122.72116 | 39926 ft | 435 kts | 276° |
| 2026-04-21 21:52 | 25.06967 | 122.66557 | 39919 ft | 435 kts | 276° |
| 2026-04-21 21:52 | 25.07719 | 122.58848 | 39917 ft | 435 kts | 276° |
| 2026-04-21 21:53 | 25.08257 | 122.53306 | 39916 ft | 434 kts | 276° |
| 2026-04-21 21:53 | 25.08897 | 122.46687 | 39914 ft | 434 kts | 276° |
| 2026-04-21 21:54 | 25.09534 | 122.40073 | 39911 ft | 434 kts | 276° |
| 2026-04-21 21:54 | 25.10168 | 122.33459 | 39913 ft | 434 kts | 276° |
| 2026-04-21 21:55 | 25.10806 | 122.26854 | 39908 ft | 432 kts | 276° |
| 2026-04-21 21:55 | 25.11368 | 122.20296 | 39908 ft | 432 kts | 275° |
| 2026-04-21 21:56 | 25.11902 | 122.13693 | 39907 ft | 432 kts | 275° |
| 2026-04-21 21:56 | 25.12443 | 122.07089 | 39916 ft | 432 kts | 276° |
| 2026-04-21 21:57 | 25.13003 | 122.00498 | 39905 ft | 432 kts | 276° |
| 2026-04-21 21:57 | 25.13604 | 121.93903 | 39900 ft | 432 kts | 277° |
| 2026-04-21 21:58 | 25.14267 | 121.87307 | 39896 ft | 432 kts | 277° |
| 2026-04-21 21:58 | 25.14927 | 121.80710 | 39889 ft | 432 kts | 277° |
| 2026-04-21 21:59 | 25.15572 | 121.74120 | 39889 ft | 431 kts | 277° |
| 2026-04-21 21:59 | 25.16205 | 121.67555 | 39894 ft | 430 kts | 277° |
| 2026-04-21 22:00 | 25.16784 | 121.60996 | 39893 ft | 430 kts | 274° |
| 2026-04-21 22:00 | 25.16297 | 121.54409 | 39899 ft | 434 kts | 260° |
| 2026-04-21 22:01 | 25.14109 | 121.48153 | 39894 ft | 443 kts | 245° |
| 2026-04-21 22:01 | 25.10412 | 121.42640 | 39893 ft | 451 kts | 236° |
| 2026-04-21 22:02 | 25.06319 | 121.37373 | 39893 ft | 452 kts | 235° |
| 2026-04-21 22:02 | 25.02200 | 121.32144 | 39886 ft | 452 kts | 235° |
| 2026-04-21 22:03 | 24.98088 | 121.26871 | 39896 ft | 454 kts | 235° |
| 2026-04-21 22:03 | 24.93990 | 121.21585 | 39895 ft | 454 kts | 236° |
| 2026-04-21 22:04 | 24.89889 | 121.16292 | 39893 ft | 454 kts | 236° |
| 2026-04-21 22:04 | 24.85793 | 121.11012 | 39895 ft | 454 kts | 235° |
| 2026-04-21 22:05 | 24.81684 | 121.05730 | 39890 ft | 454 kts | 235° |
| 2026-04-21 22:05 | 24.77578 | 121.00449 | 39903 ft | 454 kts | 235° |
| 2026-04-21 22:06 | 24.73477 | 120.95173 | 39889 ft | 454 kts | 236° |
| 2026-04-21 22:06 | 24.69371 | 120.89899 | 39891 ft | 454 kts | 236° |
| 2026-04-21 22:07 | 24.65258 | 120.84624 | 39892 ft | 454 kts | 236° |
| 2026-04-21 22:07 | 24.61146 | 120.79358 | 39884 ft | 454 kts | 236° |
| 2026-04-21 22:08 | 24.57020 | 120.74077 | 39910 ft | 456 kts | 236° |
| 2026-04-21 22:08 | 24.52785 | 120.68863 | 39920 ft | 459 kts | 232° |
| 2026-04-21 22:09 | 24.48342 | 120.63876 | 39927 ft | 460 kts | 232° |
| 2026-04-21 22:09 | 24.43861 | 120.58877 | 39930 ft | 460 kts | 232° |
| 2026-04-21 22:10 | 24.39402 | 120.53839 | 39922 ft | 460 kts | 232° |
| 2026-04-21 22:10 | 24.34958 | 120.48781 | 39930 ft | 462 kts | 232° |
| 2026-04-21 22:11 | 24.30499 | 120.43706 | 39939 ft | 462 kts | 232° |
| 2026-04-21 22:11 | 24.26036 | 120.38637 | 39933 ft | 462 kts | 232° |
| 2026-04-21 22:12 | 24.21568 | 120.33570 | 39922 ft | 462 kts | 232° |
| 2026-04-21 22:12 | 24.17107 | 120.28514 | 39903 ft | 462 kts | 232° |
| 2026-04-21 22:13 | 24.12635 | 120.23446 | 39898 ft | 463 kts | 232° |
| 2026-04-21 22:13 | 24.08156 | 120.18376 | 39898 ft | 463 kts | 232° |
| 2026-04-21 22:14 | 24.03674 | 120.13311 | 39901 ft | 463 kts | 232° |
| 2026-04-21 22:14 | 23.99186 | 120.08247 | 39900 ft | 463 kts | 232° |
| 2026-04-21 22:15 | 23.94703 | 120.03191 | 39890 ft | 463 kts | 232° |
| 2026-04-21 22:15 | 23.90209 | 119.98133 | 39903 ft | 465 kts | 231° |
| 2026-04-21 22:16 | 23.85700 | 119.93064 | 39900 ft | 465 kts | 231° |
| 2026-04-21 22:16 | 23.81191 | 119.88000 | 39900 ft | 465 kts | 231° |
| 2026-04-21 22:17 | 23.76678 | 119.82936 | 39897 ft | 465 kts | 231° |
| 2026-04-21 22:17 | 23.72167 | 119.77880 | 39892 ft | 464 kts | 231° |
| 2026-04-21 22:18 | 23.67652 | 119.72822 | 39900 ft | 466 kts | 231° |
| 2026-04-21 22:18 | 23.63153 | 119.67789 | 39903 ft | 467 kts | 231° |
| 2026-04-21 22:19 | 23.58920 | 119.62491 | 39911 ft | 459 kts | 240° |
| 2026-04-21 22:19 | 23.55403 | 119.56693 | 39905 ft | 458 kts | 242° |
| 2026-04-21 22:20 | 23.52013 | 119.50826 | 39912 ft | 457 kts | 242° |
| 2026-04-21 22:20 | 23.48635 | 119.44953 | 39894 ft | 459 kts | 242° |
| 2026-04-21 22:21 | 23.45227 | 119.39064 | 39898 ft | 460 kts | 242° |
| 2026-04-21 22:21 | 23.41806 | 119.33177 | 39890 ft | 460 kts | 242° |
| 2026-04-21 22:22 | 23.38382 | 119.27298 | 39889 ft | 460 kts | 242° |
| 2026-04-21 22:22 | 23.34946 | 119.21403 | 39894 ft | 460 kts | 241° |
| 2026-04-21 22:23 | 23.31518 | 119.15530 | 39898 ft | 459 kts | 241° |
| 2026-04-21 22:23 | 23.28093 | 119.09666 | 39899 ft | 461 kts | 241° |
| 2026-04-21 22:24 | 23.24648 | 119.03776 | 39903 ft | 462 kts | 241° |
| 2026-04-21 22:24 | 23.21203 | 118.97893 | 39899 ft | 462 kts | 241° |
| 2026-04-21 22:25 | 23.17751 | 118.92002 | 39894 ft | 461 kts | 240° |
| 2026-04-21 22:25 | 23.14307 | 118.86133 | 39900 ft | 460 kts | 240° |
| 2026-04-21 22:26 | 23.10865 | 118.80275 | 39902 ft | 459 kts | 240° |
| 2026-04-21 22:26 | 23.07440 | 118.74460 | 39898 ft | 461 kts | 240° |
| 2026-04-21 22:27 | 23.03962 | 118.68551 | 39895 ft | 461 kts | 240° |
| 2026-04-21 22:27 | 23.00521 | 118.62723 | 39898 ft | 460 kts | 240° |
| 2026-04-21 22:28 | 22.97057 | 118.56841 | 39895 ft | 458 kts | 240° |
| 2026-04-21 22:28 | 22.93635 | 118.51039 | 39894 ft | 460 kts | 240° |
| 2026-04-21 22:29 | 22.90169 | 118.45217 | 39895 ft | 459 kts | 240° |
| 2026-04-21 22:29 | 22.86698 | 118.39401 | 39889 ft | 460 kts | 240° |
| 2026-04-21 22:30 | 22.83209 | 118.33553 | 39893 ft | 463 kts | 239° |
| 2026-04-21 22:30 | 22.79721 | 118.27705 | 39891 ft | 461 kts | 239° |
| 2026-04-21 22:31 | 22.76233 | 118.21876 | 39893 ft | 461 kts | 239° |
| 2026-04-21 22:31 | 22.72752 | 118.16058 | 39892 ft | 460 kts | 239° |
| 2026-04-21 22:32 | 22.69272 | 118.10242 | 39892 ft | 460 kts | 239° |
| 2026-04-21 22:32 | 22.65788 | 118.04428 | 39889 ft | 460 kts | 240° |
| 2026-04-21 22:33 | 22.62310 | 117.98633 | 39890 ft | 458 kts | 240° |
| 2026-04-21 22:33 | 22.58842 | 117.92849 | 39889 ft | 458 kts | 240° |
| 2026-04-21 22:34 | 22.55400 | 117.87052 | 39891 ft | 458 kts | 240° |
| 2026-04-21 22:34 | 22.51961 | 117.81255 | 39889 ft | 458 kts | 240° |
| 2026-04-21 22:35 | 22.48514 | 117.75459 | 39889 ft | 458 kts | 240° |
| 2026-04-21 22:35 | 22.45065 | 117.69672 | 39878 ft | 458 kts | 240° |
| 2026-04-21 22:36 | 22.39879 | 117.60982 | 39888 ft | 459 kts | 240° |
| 2026-04-21 22:36 | 22.36439 | 117.55184 | 39890 ft | 458 kts | 242° |
| 2026-04-21 22:37 | 22.33931 | 117.48927 | 39592 ft | 452 kts | 257° |
| 2026-04-21 22:37 | 22.33342 | 117.45601 | 39355 ft | 451 kts | 265° |
| 2026-04-21 22:37 | 22.33133 | 117.42222 | 39125 ft | 452 kts | 268° |
| 2026-04-21 22:38 | 22.33035 | 117.38824 | 38898 ft | 453 kts | 269° |
| 2026-04-21 22:38 | 22.32985 | 117.35422 | 38668 ft | 454 kts | 270° |
| 2026-04-21 22:38 | 22.32949 | 117.32009 | 38425 ft | 455 kts | 270° |
| 2026-04-21 22:38 | 22.32925 | 117.29745 | 38250 ft | 455 kts | 270° |
| 2026-04-21 22:39 | 22.32882 | 117.26321 | 37983 ft | 456 kts | 269° |
| 2026-04-21 22:39 | 22.32827 | 117.22892 | 37728 ft | 457 kts | 269° |
| 2026-04-21 22:39 | 22.32748 | 117.18342 | 37378 ft | 458 kts | 269° |
| 2026-04-21 22:39 | 22.32685 | 117.14903 | 37123 ft | 459 kts | 269° |
| 2026-04-21 22:40 | 22.32619 | 117.11447 | 36865 ft | 460 kts | 269° |
| 2026-04-21 22:40 | 22.32551 | 117.07995 | 36616 ft | 461 kts | 269° |
| 2026-04-21 22:40 | 22.32482 | 117.04528 | 36372 ft | 462 kts | 269° |
| 2026-04-21 22:40 | 22.32434 | 117.02180 | 36204 ft | 463 kts | 269° |
| 2026-04-21 22:41 | 22.32363 | 116.98745 | 35967 ft | 463 kts | 269° |
| 2026-04-21 22:41 | 22.32291 | 116.95222 | 35719 ft | 464 kts | 269° |
| 2026-04-21 22:41 | 22.32220 | 116.91782 | 35480 ft | 464 kts | 269° |
| 2026-04-21 22:41 | 22.32147 | 116.88252 | 35252 ft | 465 kts | 269° |
| 2026-04-21 22:42 | 22.32076 | 116.84801 | 35025 ft | 466 kts | 269° |
| 2026-04-21 22:42 | 22.32001 | 116.81246 | 34772 ft | 467 kts | 269° |
| 2026-04-21 22:42 | 22.31927 | 116.77790 | 34546 ft | 468 kts | 269° |
| 2026-04-21 22:42 | 22.31850 | 116.74269 | 34321 ft | 470 kts | 269° |
| 2026-04-21 22:43 | 22.31774 | 116.70737 | 34096 ft | 470 kts | 269° |
| 2026-04-21 22:43 | 22.31696 | 116.67200 | 33868 ft | 471 kts | 269° |
| 2026-04-21 22:43 | 22.31617 | 116.63665 | 33614 ft | 472 kts | 269° |
| 2026-04-21 22:43 | 22.31536 | 116.60122 | 33360 ft | 472 kts | 269° |
| 2026-04-21 22:44 | 22.31456 | 116.56575 | 33108 ft | 474 kts | 269° |
| 2026-04-21 22:44 | 22.31375 | 116.53016 | 32858 ft | 474 kts | 269° |
| 2026-04-21 22:44 | 22.31292 | 116.49455 | 32610 ft | 475 kts | 269° |
| 2026-04-21 22:44 | 22.31208 | 116.45890 | 32358 ft | 476 kts | 269° |
| 2026-04-21 22:45 | 22.31123 | 116.42317 | 32124 ft | 477 kts | 269° |
| 2026-04-21 22:45 | 22.31039 | 116.38735 | 31890 ft | 477 kts | 269° |
| 2026-04-21 22:45 | 22.30953 | 116.35151 | 31643 ft | 478 kts | 269° |
| 2026-04-21 22:45 | 22.30866 | 116.31563 | 31403 ft | 479 kts | 269° |
| 2026-04-21 22:46 | 22.30779 | 116.27968 | 31169 ft | 479 kts | 269° |
| 2026-04-21 22:46 | 22.30690 | 116.24367 | 30939 ft | 480 kts | 268° |
| 2026-04-21 22:46 | 22.30601 | 116.20764 | 30709 ft | 480 kts | 268° |
| 2026-04-21 22:46 | 22.30511 | 116.17174 | 30467 ft | 478 kts | 268° |
| 2026-04-21 22:47 | 22.30420 | 116.13585 | 30253 ft | 477 kts | 268° |
| 2026-04-21 22:47 | 22.30329 | 116.10006 | 30031 ft | 476 kts | 268° |
| 2026-04-21 22:47 | 22.30237 | 116.06444 | 29770 ft | 474 kts | 268° |
| 2026-04-21 22:47 | 22.30145 | 116.02889 | 29511 ft | 472 kts | 268° |
| 2026-04-21 22:48 | 22.30051 | 115.99358 | 29239 ft | 470 kts | 268° |
| 2026-04-21 22:48 | 22.29958 | 115.95877 | 28982 ft | 469 kts | 268° |
| 2026-04-21 22:48 | 22.29865 | 115.92370 | 28728 ft | 467 kts | 268° |
| 2026-04-21 22:48 | 22.29771 | 115.88879 | 28469 ft | 464 kts | 268° |
| 2026-04-21 22:49 | 22.29676 | 115.85404 | 28214 ft | 463 kts | 268° |
| 2026-04-21 22:49 | 22.29581 | 115.81941 | 27959 ft | 461 kts | 268° |
| 2026-04-21 22:49 | 22.29490 | 115.78491 | 27708 ft | 459 kts | 268° |
| 2026-04-21 22:49 | 22.29399 | 115.75047 | 27455 ft | 457 kts | 268° |
| 2026-04-21 22:50 | 22.29310 | 115.71627 | 27213 ft | 456 kts | 268° |
| 2026-04-21 22:50 | 22.29219 | 115.68211 | 26968 ft | 454 kts | 268° |
| 2026-04-21 22:50 | 22.29126 | 115.64810 | 26736 ft | 452 kts | 268° |
| 2026-04-21 22:50 | 22.29034 | 115.61421 | 26490 ft | 451 kts | 268° |
| 2026-04-21 22:51 | 22.28944 | 115.58051 | 26249 ft | 448 kts | 268° |
| 2026-04-21 22:51 | 22.28853 | 115.54696 | 25909 ft | 444 kts | 268° |
| 2026-04-21 22:51 | 22.28761 | 115.51385 | 25302 ft | 439 kts | 268° |
| 2026-04-21 22:51 | 22.28668 | 115.48097 | 24673 ft | 436 kts | 268° |
| 2026-04-21 22:52 | 22.28576 | 115.44838 | 24026 ft | 433 kts | 268° |
| 2026-04-21 22:52 | 22.28483 | 115.41613 | 23443 ft | 428 kts | 268° |
| 2026-04-21 22:52 | 22.28391 | 115.38418 | 22732 ft | 424 kts | 268° |
| 2026-04-21 22:52 | 22.28300 | 115.35249 | 22074 ft | 419 kts | 268° |
| 2026-04-21 22:53 | 22.28211 | 115.32117 | 21425 ft | 416 kts | 268° |
| 2026-04-21 22:53 | 22.28123 | 115.29134 | 20807 ft | 413 kts | 268° |
| 2026-04-21 22:53 | 22.28043 | 115.26502 | 20252 ft | 410 kts | 268° |
| 2026-04-21 22:53 | 22.27949 | 115.23429 | 19584 ft | 408 kts | 269° |
| 2026-04-21 22:54 | 22.27855 | 115.20378 | 18927 ft | 406 kts | 269° |
| 2026-04-21 22:54 | 22.27760 | 115.17338 | 18268 ft | 403 kts | 269° |
| 2026-04-21 22:54 | 22.27666 | 115.14326 | 17524 ft | 400 kts | 269° |
| 2026-04-21 22:54 | 22.27573 | 115.11340 | 16836 ft | 396 kts | 268° |
| 2026-04-21 22:55 | 22.27480 | 115.08392 | 16165 ft | 391 kts | 268° |
| 2026-04-21 22:55 | 22.27388 | 115.05473 | 15490 ft | 387 kts | 268° |
| 2026-04-21 22:55 | 22.27296 | 115.02585 | 14823 ft | 383 kts | 268° |
| 2026-04-21 22:55 | 22.27205 | 114.99727 | 14165 ft | 379 kts | 267° |
| 2026-04-21 22:56 | 22.27113 | 114.96894 | 13468 ft | 375 kts | 267° |
| 2026-04-21 22:56 | 22.27024 | 114.94105 | 12783 ft | 370 kts | 267° |
| 2026-04-21 22:56 | 22.26935 | 114.91351 | 12189 ft | 362 kts | 267° |
| 2026-04-21 22:56 | 22.26851 | 114.88700 | 12042 ft | 344 kts | 267° |
| 2026-04-21 22:57 | 22.26768 | 114.86193 | 11909 ft | 326 kts | 266° |
| 2026-04-21 22:57 | 22.26689 | 114.83818 | 11781 ft | 308 kts | 266° |
| 2026-04-21 22:57 | 22.26609 | 114.81544 | 11504 ft | 300 kts | 266° |
| 2026-04-21 22:57 | 22.26350 | 114.79327 | 11081 ft | 297 kts | 255° |
| 2026-04-21 22:58 | 22.25502 | 114.77316 | 10759 ft | 295 kts | 236° |
| 2026-04-21 22:58 | 22.24104 | 114.75616 | 10667 ft | 309 kts | 226° |
| 2026-04-21 22:58 | 22.22558 | 114.74026 | 10597 ft | 313 kts | 225° |
| 2026-04-21 22:58 | 22.20973 | 114.72416 | 10477 ft | 312 kts | 225° |
| 2026-04-21 22:59 | 22.19398 | 114.70812 | 10335 ft | 311 kts | 225° |
| 2026-04-21 22:59 | 22.17855 | 114.69235 | 10209 ft | 298 kts | 225° |
| 2026-04-21 22:59 | 22.16367 | 114.67715 | 10066 ft | 283 kts | 225° |
| 2026-04-21 22:59 | 22.14969 | 114.66284 | 9935 ft | 273 kts | 225° |
| 2026-04-21 23:00 | 22.13598 | 114.64874 | 9812 ft | 274 kts | 226° |
| 2026-04-21 23:00 | 22.12219 | 114.63458 | 9672 ft | 274 kts | 225° |
| 2026-04-21 23:00 | 22.10842 | 114.62045 | 9543 ft | 273 kts | 225° |
| 2026-04-21 23:00 | 22.09468 | 114.60635 | 9408 ft | 272 kts | 225° |
| 2026-04-21 23:01 | 22.08093 | 114.59224 | 9278 ft | 273 kts | 225° |
| 2026-04-21 23:01 | 22.06733 | 114.57829 | 9166 ft | 273 kts | 225° |
| 2026-04-21 23:01 | 22.05357 | 114.56419 | 9030 ft | 273 kts | 225° |
| 2026-04-21 23:01 | 22.03982 | 114.55012 | 8916 ft | 273 kts | 225° |
| 2026-04-21 23:02 | 22.02653 | 114.53565 | 8729 ft | 271 kts | 231° |
| 2026-04-21 23:02 | 22.01700 | 114.51836 | 8479 ft | 269 kts | 245° |
| 2026-04-21 23:02 | 22.00975 | 114.49979 | 8230 ft | 269 kts | 248° |
| 2026-04-21 23:02 | 22.00277 | 114.48115 | 7998 ft | 268 kts | 248° |
| 2026-04-21 23:03 | 21.99576 | 114.46254 | 7753 ft | 267 kts | 247° |
| 2026-04-21 23:03 | 21.98875 | 114.44406 | 7507 ft | 266 kts | 247° |
| 2026-04-21 23:03 | 21.98173 | 114.42564 | 7260 ft | 265 kts | 247° |
| 2026-04-21 23:03 | 21.97472 | 114.40727 | 7054 ft | 265 kts | 247° |
| 2026-04-21 23:04 | 21.96774 | 114.38895 | 6817 ft | 264 kts | 246° |
| 2026-04-21 23:04 | 21.96073 | 114.37070 | 6581 ft | 263 kts | 246° |
| 2026-04-21 23:04 | 21.95374 | 114.35248 | 6366 ft | 264 kts | 246° |
| 2026-04-21 23:04 | 21.94674 | 114.33428 | 6115 ft | 263 kts | 246° |
| 2026-04-21 23:05 | 21.93977 | 114.31608 | 5871 ft | 262 kts | 246° |
| 2026-04-21 23:05 | 21.93281 | 114.29790 | 5628 ft | 262 kts | 246° |
| 2026-04-21 23:05 | 21.92588 | 114.27978 | 5391 ft | 261 kts | 246° |
| 2026-04-21 23:05 | 21.91912 | 114.26207 | 5218 ft | 250 kts | 245° |
| 2026-04-21 23:06 | 21.91264 | 114.24511 | 5061 ft | 240 kts | 245° |
| 2026-04-21 23:06 | 21.90643 | 114.22884 | 4912 ft | 229 kts | 245° |
| 2026-04-21 23:06 | 21.90047 | 114.21315 | 4812 ft | 233 kts | 246° |
| 2026-04-21 23:06 | 21.89671 | 114.19512 | 4770 ft | 259 kts | 265° |
| 2026-04-21 23:07 | 21.90038 | 114.17584 | 4739 ft | 270 kts | 291° |
| 2026-04-21 23:07 | 21.90915 | 114.15786 | 4658 ft | 272 kts | 296° |
| 2026-04-21 23:07 | 21.91861 | 114.14020 | 4526 ft | 272 kts | 296° |
| 2026-04-21 23:07 | 21.92800 | 114.12251 | 4404 ft | 272 kts | 296° |
| 2026-04-21 23:08 | 21.93731 | 114.10482 | 4276 ft | 271 kts | 296° |
| 2026-04-21 23:08 | 21.94652 | 114.08712 | 4149 ft | 271 kts | 296° |
| 2026-04-21 23:08 | 21.95569 | 114.06938 | 4042 ft | 271 kts | 296° |
| 2026-04-21 23:08 | 21.96473 | 114.05190 | 3899 ft | 270 kts | 296° |
| 2026-04-21 23:09 | 21.97386 | 114.03428 | 3790 ft | 270 kts | 296° |
| 2026-04-21 23:09 | 21.98299 | 114.01667 | 3677 ft | 269 kts | 296° |
| 2026-04-21 23:09 | 21.99196 | 113.99935 | 3542 ft | 258 kts | 296° |
| 2026-04-21 23:09 | 22.00052 | 113.98282 | 3430 ft | 247 kts | 296° |
| 2026-04-21 23:10 | 22.00866 | 113.96698 | 3296 ft | 236 kts | 296° |
| 2026-04-21 23:10 | 22.01650 | 113.95182 | 3168 ft | 227 kts | 296° |
| 2026-04-21 23:10 | 22.02401 | 113.93729 | 3030 ft | 217 kts | 296° |
| 2026-04-21 23:10 | 22.03115 | 113.92343 | 2915 ft | 205 kts | 295° |
| 2026-04-21 23:11 | 22.03792 | 113.91032 | 2799 ft | 195 kts | 296° |
| 2026-04-21 23:11 | 22.04445 | 113.89770 | 2675 ft | 193 kts | 295° |
| 2026-04-21 23:11 | 22.05096 | 113.88501 | 2552 ft | 194 kts | 295° |
| 2026-04-21 23:11 | 22.05751 | 113.87224 | 2423 ft | 194 kts | 296° |
| 2026-04-21 23:12 | 22.06403 | 113.85951 | 2301 ft | 194 kts | 295° |
| 2026-04-21 23:12 | 22.07056 | 113.84678 | 2182 ft | 194 kts | 295° |
| 2026-04-21 23:12 | 22.07709 | 113.83403 | 2060 ft | 194 kts | 295° |
| 2026-04-21 23:12 | 22.08361 | 113.82136 | 1937 ft | 193 kts | 295° |
| 2026-04-21 23:13 | 22.09012 | 113.80873 | 1816 ft | 193 kts | 295° |
| 2026-04-21 23:13 | 22.09663 | 113.79606 | 1692 ft | 193 kts | 295° |
| 2026-04-21 23:13 | 22.10352 | 113.78372 | 1600 ft | 192 kts | 302° |
| 2026-04-21 23:13 | 22.11299 | 113.77351 | 1519 ft | 196 kts | 322° |
| 2026-04-21 23:14 | 22.12504 | 113.76636 | 1463 ft | 199 kts | 333° |
| 2026-04-21 23:14 | 22.13772 | 113.76011 | 1395 ft | 201 kts | 333° |
| 2026-04-21 23:14 | 22.15047 | 113.75391 | 1334 ft | 200 kts | 333° |
| 2026-04-21 23:14 | 22.16309 | 113.74770 | 1224 ft | 199 kts | 333° |
| 2026-04-21 23:15 | 22.17551 | 113.74153 | 1331 ft | 197 kts | 333° |
| 2026-04-21 23:15 | 22.18808 | 113.73524 | 1556 ft | 199 kts | 333° |
| 2026-04-21 23:15 | 22.20067 | 113.72904 | 1589 ft | 199 kts | 334° |
| 2026-04-21 23:15 | 22.21426 | 113.72615 | 1589 ft | 203 kts | 5° |
| 2026-04-21 23:16 | 22.22717 | 113.73153 | 1599 ft | 199 kts | 33° |
| 2026-04-21 23:16 | 22.23868 | 113.73962 | 1595 ft | 197 kts | 36° |
| 2026-04-21 23:16 | 22.25009 | 113.74793 | 1588 ft | 199 kts | 37° |
| 2026-04-21 23:16 | 22.26121 | 113.75685 | 1584 ft | 199 kts | 46° |
| 2026-04-21 23:17 | 22.26956 | 113.76855 | 1582 ft | 195 kts | 63° |
| 2026-04-21 23:17 | 22.27394 | 113.78199 | 1588 ft | 180 kts | 79° |
| 2026-04-21 23:17 | 22.27725 | 113.79419 | 1575 ft | 160 kts | 76° |
| 2026-04-21 23:17 | 22.28105 | 113.80518 | 1582 ft | 154 kts | 74° |
| 2026-04-21 23:18 | 22.28459 | 113.81607 | 1590 ft | 154 kts | 75° |
| 2026-04-21 23:18 | 22.28813 | 113.82708 | 1590 ft | 156 kts | 76° |
| 2026-04-21 23:18 | 22.29181 | 113.83824 | 1464 ft | 158 kts | 73° |
| 2026-04-21 23:18 | 22.29567 | 113.84935 | 1172 ft | 158 kts | 74° |
| 2026-04-21 23:19 | 22.29946 | 113.86061 | 836 ft | 159 kts | 75° |
| 2026-04-21 23:19 | 22.30268 | 113.87188 | 634 ft | 155 kts | 77° |
| 2026-04-21 23:19 | 22.30598 | 113.88280 | 394 ft | 152 kts | 70° |
| 2026-04-21 23:19 | 22.30957 | 113.89345 | 211 ft | 151 kts | 73° |
| 2026-04-21 23:20 | 22.31297 | 113.90419 | 47 ft | 151 kts | 73° |
| 2026-04-21 23:20 | 22.31590 | 113.91345 | 38 ft | 85 kts | 70° |
| 2026-04-21 23:20 | 22.31720 | 113.91744 | 39 ft | 19 kts | 70° |
| 2026-04-21 23:20 | 22.31782 | 113.91945 | 39 ft | 38 kts | 76° |
| 2026-04-21 23:21 | 22.31782 | 113.92179 | 40 ft | 17 kts | 99° |
| 2026-04-21 23:21 | 22.31752 | 113.92245 | 37 ft | 0 kts | 150° |
| 2026-04-21 23:21 | 22.31753 | 113.92245 | 39 ft | 0 kts | 150° |
| 2026-04-21 23:22 | 22.31752 | 113.92245 | 39 ft | 0 kts | 150° |
| 2026-04-21 23:23 | 22.31736 | 113.92250 | 38 ft | 7 kts | 170° |
| 2026-04-21 23:23 | 22.31679 | 113.92188 | 38 ft | 19 kts | 247° |
| 2026-04-21 23:23 | 22.31629 | 113.92036 | 38 ft | 21 kts | 250° |
| 2026-04-21 23:23 | 22.31581 | 113.91893 | 38 ft | 19 kts | 251° |
| 2026-04-21 23:24 | 22.31542 | 113.91764 | 39 ft | 17 kts | 251° |
| 2026-04-21 23:24 | 22.31505 | 113.91649 | 39 ft | 15 kts | 250° |
| 2026-04-21 23:24 | 22.31465 | 113.91528 | 39 ft | 18 kts | 251° |
| 2026-04-21 23:24 | 22.31391 | 113.91434 | 37 ft | 21 kts | 183° |
| 2026-04-21 23:25 | 22.31217 | 113.91494 | 39 ft | 32 kts | 161° |
| 2026-04-21 23:25 | 22.31002 | 113.91573 | 38 ft | 31 kts | 162° |
| 2026-04-21 23:25 | 22.30829 | 113.91637 | 38 ft | 17 kts | 160° |
| 2026-04-21 23:25 | 22.30739 | 113.91673 | 38 ft | 10 kts | 152° |
| 2026-04-21 23:26 | 22.30725 | 113.91728 | 38 ft | 7 kts | 76° |
| 2026-04-21 23:26 | 22.30737 | 113.91772 | 38 ft | 0 kts | 72° |